Time;durP1;ratioP1;P1;durP2;ratioP2;P2;SDS_P1;SDS_P2;PMS_P1;PMS_P2;Temp;Humidity;BMP_temperature;BMP_pressure;BME280_temperature;BME280_humidity;BME280_pressure;Samples;Min_cycle;Max_cycle;Signal;HPM_P1;HPM_P2
2021/11/30 06:31:36;;;;;;;;;;;;;;;;;;3843141;23;20336;-70
2021/11/30 06:34:02;;;;;;;;;;;;;;;;;;4898512;29;19922;-74
2021/11/30 06:36:28;;;;;;;;;;;;;;;;;;4898857;29;20002;-71
2021/11/30 06:38:57;;;;;;;;;;;;;;;;;;4882028;29;19912;-73
2021/11/30 06:41:23;;;;;;;;;;;;;;;;;;4881818;29;19932;-77
2021/11/30 06:43:48;;;;;;;;;;;;;;;;;;4895238;29;19911;-71
2021/11/30 06:46:15;;;;;;;;;;;;;;;;;;4876714;29;20106;-70
2021/11/30 06:48:41;;;;;;;;;;;;;;;;;;4881193;29;19982;-73
2021/11/30 06:51:07;;;;;;;;;;;;;;;;;;4881814;29;19915;-70
2021/11/30 06:53:34;;;;;;;;;;;;;;;;;;4881993;29;19911;-75
2021/11/30 06:56:00;;;;;;;;;;;;;;;;;;4880868;29;20356;-74
2021/11/30 06:58:26;;;;;;;;;;;;;;;;;;4881345;29;19918;-74
2021/11/30 07:00:52;;;;;;;;;;;;;;;;;;4881924;29;19963;-73
2021/11/30 07:03:20;;;;;;;;;;;;;;;;;;4881962;29;19919;-71
2021/11/30 07:05:51;;;;;;;;;;;;;;;;;;4881659;29;20386;-75
2021/11/30 07:08:33;;;;;;;;;;;;;;;;;;4898267;29;19922;-71
2021/11/30 07:11:06;;;;;;;;;;;;;;;;;;4898100;29;19918;-74
2021/11/30 07:13:35;;;;;;;;;;;;;;;;;;4881731;29;19911;-73
2021/11/30 07:16:01;;;;;;;;;;;;;;;;;;4898716;29;20352;-73
2021/11/30 07:18:27;;;;;;;;;;;;;;;;;;4898515;29;19934;-72
2021/11/30 07:20:56;;;;;;;;;;;;;;;;;;4880903;29;20379;-73
2021/11/30 07:23:22;;;;;;;;;;;;;;;;;;4894285;29;19907;-74
2021/11/30 07:25:52;;;;;;;;;;;;;;;;;;4896855;29;20303;-72
2021/11/30 07:28:18;;;;;;;;;;;;;;;;;;4896887;29;19926;-71
2021/11/30 07:30:44;;;;;;;;;;;;;;;;;;4878910;29;20252;-72
2021/11/30 07:33:10;;;;;;;;;;;;;;;;;;4860802;29;19972;-70
2021/11/30 07:35:36;;;;;;;;;;;;;;;;;;4884255;29;19916;-75
2021/11/30 07:38:06;;;;;;;;;;;;;;;;;;4860662;29;19907;-70
2021/11/30 07:40:32;;;;;;;;;;;;;;;;;;4878286;29;19914;-74
2021/11/30 07:42:58;;;;;;;;;;;;;;;;;;4877154;29;20315;-74
2021/11/30 07:45:24;;;;;;;;;;;;;;;;;;4879026;29;20007;-73
2021/11/30 07:47:50;;;;;;;;;;;;;;;;;;4877555;29;19918;-71
2021/11/30 07:50:16;;;;;;;;;;;;;;;;;;4877817;29;20364;-70
2021/11/30 07:52:43;;;;;;;;;;;;;;;;;;4876402;29;19966;-72
2021/11/30 07:55:11;;;;;;;;;;;;;;;;;;4876750;29;20328;-72
2021/11/30 07:57:37;;;;;;;;;;;;;;;;;;4857270;29;19927;-70
2021/11/30 08:00:03;;;;;;;;;;;;;;;;;;4858232;29;20289;-71
2021/11/30 08:02:29;;;;;;;;;;;;;;;;;;4875099;29;20238;-71
2021/11/30 08:04:55;;;;;;;;;;;;;;;;;;4875982;29;19926;-71
2021/11/30 08:07:22;;;;;;;;;;;;;;;;;;4858973;29;19912;-71
2021/11/30 08:09:49;;;;;;;;;;;;;;;;;;4875354;29;19935;-71
2021/11/30 08:16:04;;;;;;;22.17;10.70;;;;;;;;;;5141379;27;20346;-75
2021/11/30 08:18:33;;;;;;;21.50;9.55;;;;;;;;;;5130413;27;20023;-76
2021/11/30 08:21:02;;;;;;;18.33;10.75;;;;;;;;;;5123178;27;20495;-77
2021/11/30 08:23:35;;;;;;;22.00;13.80;;;;;;;;;;5137530;27;20035;-77
2021/11/30 08:26:12;;;;;;;23.80;11.20;;;;;;;;;;5129096;27;20492;-77
2021/11/30 08:28:39;;;;;;;23.92;11.10;;;;;;;;;;5117573;27;20027;-82
2021/11/30 08:31:08;;;;;;;19.00;9.23;;;;;;;;;;5115825;28;20119;-81
2021/11/30 08:33:40;;;;;;;23.23;11.60;;;;;;;;;;5114531;28;20020;-77
2021/11/30 08:36:18;;;;;;;37.38;14.60;;;;;;;;;;5115632;28;20016;-76
2021/11/30 08:38:52;;;;;;;23.75;11.05;;;;;;;;;;5102102;28;20121;-79
2021/11/30 08:45:00;;;;;;;21.42;10.85;;;;;;;;;;5127744;28;20039;-77
2021/11/30 08:47:32;;;;;;;21.63;11.63;;;;;;;;;;5111834;28;20024;-73
2021/11/30 08:53:53;;;;;;;19.42;11.80;;;;;;;;;;4984649;28;20042;-74
2021/11/30 08:57:00;;;;;;;21.55;11.75;;;;;;;;;;4984947;28;20514;-75
2021/11/30 08:59:32;;;;;;;21.58;11.52;;;;;;;;;;4914202;29;20041;-78
2021/11/30 09:05:19;;;;;;;18.15;10.73;;;;;;;;;;4919583;29;20106;-71
2021/11/30 09:14:09;;;;;;;18.63;10.82;;;;;;;;;;4855785;29;20101;-73
2021/11/30 09:16:57;;;;;;;20.95;11.20;;;;;;;;;;4871869;29;20532;-72
2021/11/30 09:22:29;;;;;;;23.13;11.77;;;;;;;;;;4881074;29;20068;-75
2021/11/30 09:25:06;;;;;;;17.98;10.68;;;;;;;;;;4886522;29;20469;-73
2021/11/30 09:27:32;;;;;;;19.15;11.57;;;;;;;;;;4869938;29;20041;-74
2021/11/30 09:29:59;;;;;;;21.20;10.93;;;;;;;;;;4886971;29;20072;-79
2021/11/30 09:32:29;;;;;;;19.15;11.40;;;;;;;;;;4900716;29;20060;-79
2021/11/30 09:35:12;;;;;;;17.42;9.80;;;;;;;;;;4941609;28;20126;-84
2021/11/30 09:40:42;;;;;;;17.00;10.50;;;;;;;;;;4953064;28;20046;-74
2021/11/30 09:43:11;;;;;;;19.88;10.75;;;;;;;;;;4952192;29;20067;-74
2021/11/30 09:46:16;;;;;;;;;;;;;;;;;;;;;
2021/11/30 09:57:03;;;;;;;18.13;10.07;;;;;;;;;;5111729;22;20052;-72
2021/11/30 09:59:29;;;;;;;15.18;9.95;;;;;;;;;;5044219;28;20108;-74
2021/11/30 10:01:55;;;;;;;16.45;9.60;;;;;;;;;;5041571;28;20544;-72
2021/11/30 10:04:22;;;;;;;17.17;9.38;;;;;;;;;;5059992;28;20036;-79
2021/11/30 10:06:48;;;;;;;17.73;9.48;;;;;;;;;;5060471;28;20405;-73
2021/11/30 10:09:20;;;;;;;16.38;9.88;;;;;;;;;;5064888;28;20369;-74
2021/11/30 10:11:54;;;;;;;18.40;9.98;;;;;;;;;;5048336;28;20044;-75
2021/11/30 10:14:26;;;;;;;15.60;9.13;;;;;;;;;;5037557;28;20036;-73
2021/11/30 10:17:16;;;;;;;10.70;6.47;;;;;;;;;;5035056;28;20061;-73
2021/11/30 10:19:42;;;;;;;14.88;9.10;;;;;;;;;;5052464;28;20021;-75
2021/11/30 10:22:14;;;;;;;15.18;8.90;;;;;;;;;;5034278;28;20029;-74
2021/11/30 10:24:41;;;;;;;15.30;9.07;;;;;;;;;;5049108;28;20055;-75
2021/11/30 10:27:14;;;;;;;16.20;9.40;;;;;;;;;;5050589;28;20130;-73
2021/11/30 10:29:50;;;;;;;16.65;9.05;;;;;;;;;;5050662;28;20032;-73
2021/11/30 10:32:39;;;;;;;14.68;8.40;;;;;;;;;;5056426;28;20028;-74
2021/11/30 10:35:16;;;;;;;17.15;9.80;;;;;;;;;;5067839;28;20104;-73
2021/11/30 10:37:47;;;;;;;11.80;8.55;;;;;;;;;;5040861;28;20105;-72
2021/11/30 10:40:49;;;;;;;11.90;8.13;;;;;;;;;;5039295;28;20510;-72
2021/11/30 10:43:18;;;;;;;13.27;8.25;;;;;;;;;;5050170;28;20072;-73
2021/11/30 10:46:20;;;;;;;13.68;7.90;;;;;;;;;;5054103;22;21157;-72
2021/11/30 10:48:46;;;;;;;12.23;7.63;;;;;;;;;;5022678;28;20064;-75
2021/11/30 10:51:26;;;;;;;11.35;7.22;;;;;;;;;;5052029;28;20430;-73
2021/11/30 10:54:13;;;;;;;11.27;7.30;;;;;;;;;;5071418;28;20021;-72
2021/11/30 10:56:41;;;;;;;10.77;7.13;;;;;;;;;;5053738;28;20028;-71
2021/11/30 10:59:07;;;;;;;13.07;8.13;;;;;;;;;;5071551;28;20020;-70
2021/11/30 11:01:33;;;;;;;15.00;8.40;;;;;;;;;;5070768;28;20467;-70
2021/11/30 11:04:12;;;;;;;15.25;8.48;;;;;;;;;;5071227;28;20037;-72
2021/11/30 11:06:38;;;;;;;12.38;7.35;;;;;;;;;;5071478;28;20029;-71
2021/11/30 11:09:07;;;;;;;11.52;7.50;;;;;;;;;;5071214;28;20392;-70
2021/11/30 11:11:37;;;;;;;10.90;7.03;;;;;;;;;;5071141;28;20040;-67
2021/11/30 11:14:17;;;;;;;12.90;6.85;;;;;;;;;;5071328;28;20025;-70
2021/11/30 11:16:43;;;;;;;13.57;7.75;;;;;;;;;;5070613;28;20038;-70
2021/11/30 11:19:10;;;;;;;11.48;7.00;;;;;;;;;;5071124;28;20036;-70
2021/11/30 11:21:37;;;;;;;12.73;7.35;;;;;;;;;;5070933;28;20052;-71
2021/11/30 11:24:10;;;;;;;12.55;6.88;;;;;;;;;;5071058;28;20040;-71
2021/11/30 11:26:42;;;;;;;10.55;7.25;;;;;;;;;;5071011;28;20066;-71
2021/11/30 11:29:21;;;;;;;9.90;6.32;;;;;;;;;;5071117;28;20052;-78
2021/11/30 11:31:52;;;;;;;11.77;7.32;;;;;;;;;;5077759;28;20028;-70
2021/11/30 11:34:19;;;;;;;12.52;7.13;;;;;;;;;;5091291;28;20023;-70
2021/11/30 11:36:46;;;;;;;11.68;7.13;;;;;;;;;;5091074;28;20032;-69
2021/11/30 11:39:15;;;;;;;10.55;7.10;;;;;;;;;;5091182;28;20024;-71
2021/11/30 11:41:42;;;;;;;13.70;8.15;;;;;;;;;;5090663;28;20024;-67
2021/11/30 11:44:08;;;;;;;11.80;7.57;;;;;;;;;;5090949;28;20092;-69
2021/11/30 11:46:35;;;;;;;10.43;6.60;;;;;;;;;;5090376;28;20051;-64
2021/11/30 11:49:02;;;;;;;12.40;6.75;;;;;;;;;;5090803;28;20032;-65
2021/11/30 11:51:34;;;;;;;12.00;6.60;;;;;;;;;;5090885;28;20498;-67
2021/11/30 11:54:01;;;;;;;13.55;7.07;;;;;;;;;;5090660;28;20379;-71
2021/11/30 11:56:31;;;;;;;9.88;6.70;;;;;;;;;;5090434;28;20020;-67
2021/11/30 11:59:11;;;;;;;13.18;7.22;;;;;;;;;;5090885;28;20043;-66
2021/11/30 12:01:39;;;;;;;12.90;6.78;;;;;;;;;;5090846;28;20109;-71
2021/11/30 12:04:06;;;;;;;8.73;6.00;;;;;;;;;;5090506;28;20043;-67
2021/11/30 12:06:34;;;;;;;9.27;5.57;;;;;;;;;;5090700;28;20149;-72
2021/11/30 12:09:08;;;;;;;11.82;5.68;;;;;;;;;;5091009;28;20036;-69
2021/11/30 12:11:40;;;;;;;12.68;6.47;;;;;;;;;;5090470;28;20027;-70
2021/11/30 12:14:22;;;;;;;11.32;6.22;;;;;;;;;;5090811;28;20039;-69
2021/11/30 12:17:06;;;;;;;10.68;6.45;;;;;;;;;;5080320;28;20056;-71
2021/11/30 12:19:34;;;;;;;9.73;5.78;;;;;;;;;;5060137;28;20044;-72
2021/11/30 12:22:01;;;;;;;10.68;6.30;;;;;;;;;;5079471;28;20417;-74
2021/11/30 12:24:39;;;;;;;10.45;6.25;;;;;;;;;;5069767;28;20044;-67
2021/11/30 12:27:14;;;;;;;8.93;5.55;;;;;;;;;;5069753;28;20074;-71
2021/11/30 12:29:41;;;;;;;8.50;5.78;;;;;;;;;;5069327;28;20482;-72
2021/11/30 12:32:15;;;;;;;12.77;6.28;;;;;;;;;;5069653;28;20040;-69
2021/11/30 12:34:49;;;;;;;9.63;5.78;;;;;;;;;;5069757;28;20021;-71
2021/11/30 12:37:16;;;;;;;12.45;6.72;;;;;;;;;;5074122;28;20025;-71
2021/11/30 12:40:06;;;;;;;10.88;6.43;;;;;;;;;;5070304;28;20484;-71
2021/11/30 12:42:52;;;;;;;13.10;5.97;;;;;;;;;;5070227;28;20017;-69
2021/11/30 12:45:22;;;;;;;10.98;6.05;;;;;;;;;;5072645;28;20118;-70
2021/11/30 12:47:49;;;;;;;11.65;6.50;;;;;;;;;;5077128;28;20037;-68
2021/11/30 12:50:22;;;;;;;15.00;7.00;;;;;;;;;;5070157;28;20141;-69
2021/11/30 12:52:52;;;;;;;12.98;6.63;;;;;;;;;;5070250;28;20025;-75
2021/11/30 12:55:19;;;;;;;11.82;6.18;;;;;;;;;;5069862;28;20032;-75
2021/11/30 12:57:45;;;;;;;18.65;7.70;;;;;;;;;;5070247;28;20035;-73
2021/11/30 13:00:20;;;;;;;16.30;7.57;;;;;;;;;;5051907;28;20561;-73
2021/11/30 13:02:47;;;;;;;13.15;7.05;;;;;;;;;;5073582;28;20074;-71
2021/11/30 13:05:15;;;;;;;9.50;5.30;;;;;;;;;;5073550;28;20035;-72
2021/11/30 13:07:47;;;;;;;10.70;5.28;;;;;;;;;;5073575;28;20391;-72
2021/11/30 13:10:29;;;;;;;9.60;5.70;;;;;;;;;;5073355;28;20082;-71
2021/11/30 13:12:56;;;;;;;11.45;6.13;;;;;;;;;;5073031;28;20035;-70
2021/11/30 13:15:23;;;;;;;8.73;5.72;;;;;;;;;;5054306;28;20178;-70
2021/11/30 13:17:50;;;;;;;10.50;5.80;;;;;;;;;;5073017;28;20033;-71
2021/11/30 13:20:17;;;;;;;12.50;6.50;;;;;;;;;;5073621;28;20188;-69
2021/11/30 13:22:44;;;;;;;10.02;5.95;;;;;;;;;;5073277;28;20107;-74
2021/11/30 13:25:15;;;;;;;9.45;5.30;;;;;;;;;;5082139;28;20043;-71
2021/11/30 13:27:50;;;;;;;7.57;4.72;;;;;;;;;;5081688;28;20138;-67
2021/11/30 13:30:19;;;;;;;10.00;5.20;;;;;;;;;;5064546;28;20120;-73
2021/11/30 13:32:46;;;;;;;8.60;5.38;;;;;;;;;;5082721;28;20034;-69
2021/11/30 13:35:18;;;;;;;9.13;4.88;;;;;;;;;;5081967;28;20028;-68
2021/11/30 13:37:50;;;;;;;7.63;4.18;;;;;;;;;;5079604;28;20467;-70
2021/11/30 13:40:16;;;;;;;9.13;5.35;;;;;;;;;;5080842;28;20016;-72
2021/11/30 13:42:46;;;;;;;10.82;5.53;;;;;;;;;;5082749;28;20455;-69
2021/11/30 13:45:13;;;;;;;9.00;5.53;;;;;;;;;;5082269;28;20051;-71
2021/11/30 13:47:50;;;;;;;10.75;5.53;;;;;;;;;;5080556;28;20511;-69
2021/11/30 13:50:17;;;;;;;12.98;5.20;;;;;;;;;;5080402;28;20027;-74
2021/11/30 13:52:43;;;;;;;9.95;5.07;;;;;;;;;;5081793;28;20023;-72
2021/11/30 13:55:09;;;;;;;9.45;4.93;;;;;;;;;;5081558;28;20024;-70
2021/11/30 13:57:36;;;;;;;7.85;4.45;;;;;;;;;;5080810;28;20048;-71
2021/11/30 14:00:12;;;;;;;9.75;4.57;;;;;;;;;;5071633;28;20036;-71
2021/11/30 14:02:39;;;;;;;7.78;4.30;;;;;;;;;;5054320;28;20055;-72
2021/11/30 14:05:06;;;;;;;9.05;4.28;;;;;;;;;;5072448;28;20112;-70
2021/11/30 14:07:35;;;;;;;11.85;6.60;;;;;;;;;;5072764;28;20032;-71
2021/11/30 14:10:03;;;;;;;8.60;4.93;;;;;;;;;;5072370;28;20032;-73
2021/11/30 14:12:29;;;;;;;8.32;4.85;;;;;;;;;;5072257;28;20023;-67
2021/11/30 14:14:58;;;;;;;7.63;4.47;;;;;;;;;;5071950;28;20032;-75
2021/11/30 14:17:26;;;;;;;7.82;4.40;;;;;;;;;;5054413;28;20032;-68
2021/11/30 14:19:53;;;;;;;7.82;4.70;;;;;;;;;;5054264;28;20075;-73
2021/11/30 14:22:20;;;;;;;11.27;4.90;;;;;;;;;;5072182;28;20468;-69
2021/11/30 14:24:53;;;;;;;8.93;5.15;;;;;;;;;;5071921;28;20395;-71
2021/11/30 14:27:19;;;;;;;7.47;4.63;;;;;;;;;;5072350;28;20551;-70
2021/11/30 14:29:47;;;;;;;8.02;4.70;;;;;;;;;;5072303;28;20412;-77
2021/11/30 14:32:17;;;;;;;10.18;4.60;;;;;;;;;;5072087;28;20620;-71
2021/11/30 14:34:45;;;;;;;7.60;4.38;;;;;;;;;;5071840;28;20020;-69
2021/11/30 14:37:20;;;;;;;7.63;4.28;;;;;;;;;;5071647;28;20489;-72
2021/11/30 14:39:46;;;;;;;8.55;4.28;;;;;;;;;;5071887;28;20016;-69
2021/11/30 14:42:28;;;;;;;7.03;3.90;;;;;;;;;;5053243;28;20032;-72
2021/11/30 14:45:13;;;;;;;9.40;4.80;;;;;;;;;;5071600;28;20346;-75
2021/11/30 14:47:39;;;;;;;6.85;4.00;;;;;;;;;;5055461;28;20060;-71
2021/11/30 14:50:07;;;;;;;9.10;4.05;;;;;;;;;;5072534;28;20035;-69
2021/11/30 14:52:42;;;;;;;7.97;4.50;;;;;;;;;;5077458;28;20505;-71
2021/11/30 14:55:15;;;;;;;7.18;3.88;;;;;;;;;;5081708;28;20020;-74
2021/11/30 14:57:41;;;;;;;7.18;3.88;;;;;;;;;;5085047;28;20121;-71
2021/11/30 15:00:26;;;;;;;8.57;3.92;;;;;;;;;;5079522;28;20024;-69
2021/11/30 15:03:02;;;;;;;6.88;4.00;;;;;;;;;;5073675;28;20391;-70
2021/11/30 15:05:35;;;;;;;8.00;4.13;;;;;;;;;;5070327;28;20060;-75
2021/11/30 15:08:01;;;;;;;;;;;;;;;;;;5053356;28;20029;-69
2021/11/30 15:10:27;;;;;;;8.20;3.88;;;;;;;;;;5070952;28;19905;-71
2021/11/30 15:13:08;;;;;;;7.25;3.92;;;;;;;;;;5052991;28;20771;-71
2021/11/30 15:15:35;;;;;;;7.90;4.20;;;;;;;;;;5052655;28;20067;-71
2021/11/30 15:18:14;;;;;;;10.52;4.60;;;;;;;;;;5088270;28;20040;-72
2021/11/30 15:20:40;;;;;;;6.80;4.25;;;;;;;;;;5091036;28;20035;-71
2021/11/30 15:23:06;;;;;;;8.68;4.53;;;;;;;;;;5071026;28;20031;-71
2021/11/30 15:25:32;;;;;;;10.30;4.80;;;;;;;;;;5080211;28;20078;-72
2021/11/30 15:28:01;;;;;;;9.57;4.70;;;;;;;;;;5084170;28;20479;-73
2021/11/30 15:30:27;;;;;;;10.25;5.35;;;;;;;;;;5083513;28;20074;-72
2021/11/30 15:32:53;;;;;;;12.23;5.75;;;;;;;;;;5079335;28;20020;-73
2021/11/30 15:35:19;;;;;;;9.88;5.55;;;;;;;;;;5085744;28;20123;-72
2021/11/30 15:37:55;;;;;;;11.30;5.88;;;;;;;;;;5076251;28;20387;-76
2021/11/30 15:40:24;;;;;;;18.10;6.57;;;;;;;;;;5052239;28;20056;-73
2021/11/30 15:42:50;;;;;;;14.07;7.45;;;;;;;;;;5051926;28;20123;-79
2021/11/30 15:45:16;;;;;;;16.27;8.18;;;;;;;;;;5052200;28;20110;-74
2021/11/30 15:47:43;;;;;;;20.52;8.60;;;;;;;;;;5080692;28;20085;-74
2021/11/30 15:50:12;;;;;;;14.88;7.97;;;;;;;;;;5081956;28;20024;-73
2021/11/30 15:52:40;;;;;;;19.20;8.85;;;;;;;;;;5090963;28;20024;-74
2021/11/30 15:57:56;;;;;;;17.38;9.80;;;;;;;;;;5082466;28;20111;-72
2021/11/30 16:02:58;;;;;;;18.65;9.63;;;;;;;;;;3145376;26;20041;-75
2021/11/30 16:05:25;;;;;;;22.40;10.85;;;;;;;;;;5013050;28;20048;-74
2021/11/30 16:07:57;;;;;;;25.20;12.23;;;;;;;;;;5045334;28;20401;-74
2021/11/30 16:10:23;;;;;;;45.92;21.10;;;;;;;;;;5046892;28;20080;-73
2021/11/30 16:12:54;;;;;;;44.63;20.65;;;;;;;;;;5038213;28;20014;-77
2021/11/30 16:15:23;;;;;;;57.33;28.30;;;;;;;;;;5045739;28;20030;-74
2021/11/30 16:17:51;;;;;;;41.38;21.95;;;;;;;;;;5030576;28;20029;-73
2021/11/30 16:20:17;;;;;;;30.48;16.15;;;;;;;;;;5030556;28;20444;-75
2021/11/30 16:22:49;;;;;;;42.78;22.13;;;;;;;;;;5045816;28;20047;-76
2021/11/30 16:25:15;;;;;;;40.30;20.30;;;;;;;;;;5034550;28;20048;-72
2021/11/30 16:27:45;;;;;;;34.50;19.63;;;;;;;;;;5050141;28;20295;-70
2021/11/30 16:30:11;;;;;;;45.45;21.08;;;;;;;;;;5021382;28;20063;-70
2021/11/30 16:32:37;;;;;;;54.20;24.75;;;;;;;;;;5044589;28;20157;-69
2021/11/30 16:35:03;;;;;;;34.88;16.05;;;;;;;;;;5043904;28;20038;-73
2021/11/30 16:37:30;;;;;;;29.08;15.07;;;;;;;;;;5043621;28;20025;-69
2021/11/30 16:39:56;;;;;;;25.55;14.13;;;;;;;;;;5042623;28;20033;-70
2021/11/30 16:42:22;;;;;;;26.25;14.27;;;;;;;;;;5023436;28;20389;-70
2021/11/30 16:44:48;;;;;;;28.90;14.80;;;;;;;;;;5042847;28;20042;-67
2021/11/30 16:47:18;;;;;;;29.67;14.27;;;;;;;;;;5039165;28;20111;-69
2021/11/30 16:49:45;;;;;;;24.60;12.32;;;;;;;;;;5051579;28;20021;-69
2021/11/30 16:52:13;;;;;;;23.35;12.02;;;;;;;;;;5041280;28;20029;-66
2021/11/30 16:54:39;;;;;;;27.23;14.63;;;;;;;;;;5015486;28;20111;-70
2021/11/30 16:57:05;;;;;;;26.15;13.18;;;;;;;;;;5043527;28;20037;-64
2021/11/30 16:59:31;;;;;;;30.75;16.85;;;;;;;;;;5038225;28;20542;-64
2021/11/30 17:01:57;;;;;;;36.30;19.92;;;;;;;;;;5044983;28;20064;-70
2021/11/30 17:04:24;;;;;;;24.50;13.65;;;;;;;;;;5053578;28;20037;-67
2021/11/30 17:06:50;;;;;;;19.10;10.02;;;;;;;;;;5017800;28;20044;-68
2021/11/30 17:09:25;;;;;;;20.98;10.82;;;;;;;;;;5033549;28;20554;-67
2021/11/30 17:11:51;;;;;;;19.92;11.23;;;;;;;;;;5033149;28;20140;-68
2021/11/30 17:14:17;;;;;;;21.00;12.25;;;;;;;;;;5035839;28;20084;-66
2021/11/30 17:16:43;;;;;;;22.95;12.88;;;;;;;;;;5033624;28;20025;-68
2021/11/30 17:19:10;;;;;;;16.88;9.23;;;;;;;;;;5047915;28;20384;-65
2021/11/30 17:21:40;;;;;;;22.20;12.93;;;;;;;;;;5045306;28;20033;-66
2021/11/30 17:24:09;;;;;;;18.00;10.75;;;;;;;;;;5033435;28;20549;-68
2021/11/30 17:26:35;;;;;;;15.02;8.55;;;;;;;;;;5038288;28;20119;-66
2021/11/30 17:29:04;;;;;;;14.32;8.77;;;;;;;;;;5041155;28;20021;-64
2021/11/30 17:31:31;;;;;;;13.00;7.60;;;;;;;;;;5041253;28;20083;-66
2021/11/30 17:33:57;;;;;;;15.45;8.05;;;;;;;;;;5040680;28;20029;-68
2021/11/30 17:36:23;;;;;;;13.52;7.57;;;;;;;;;;5025441;28;20086;-63
2021/11/30 17:38:49;;;;;;;13.32;7.90;;;;;;;;;;5035982;28;20036;-63
2021/11/30 17:41:15;;;;;;;12.13;7.28;;;;;;;;;;5040697;28;20033;-64
2021/11/30 17:43:42;;;;;;;14.48;7.72;;;;;;;;;;5052967;28;20036;-63
2021/11/30 17:46:08;;;;;;;14.23;8.02;;;;;;;;;;5052344;28;20090;-65
2021/11/30 17:48:35;;;;;;;15.85;7.78;;;;;;;;;;5053159;28;20111;-65
2021/11/30 17:51:02;;;;;;;13.93;7.95;;;;;;;;;;5052729;28;20124;-65
2021/11/30 17:53:28;;;;;;;15.90;7.78;;;;;;;;;;5035006;28;20023;-64
2021/11/30 17:55:54;;;;;;;14.45;8.00;;;;;;;;;;5052717;28;20025;-63
2021/11/30 17:58:20;;;;;;;17.83;8.30;;;;;;;;;;5052403;28;20032;-66
2021/11/30 18:00:47;;;;;;;15.88;8.68;;;;;;;;;;5053076;28;20032;-66
2021/11/30 18:03:13;;;;;;;18.92;9.90;;;;;;;;;;5017548;28;20167;-66
2021/11/30 18:05:39;;;;;;;18.88;10.07;;;;;;;;;;5011648;28;20057;-66
2021/11/30 18:08:05;;;;;;;22.80;11.32;;;;;;;;;;5013044;28;20381;-67
2021/11/30 18:10:34;;;;;;;23.67;11.65;;;;;;;;;;5011405;28;20121;-67
2021/11/30 18:13:02;;;;;;;25.15;13.20;;;;;;;;;;5012782;28;20025;-67
2021/11/30 18:15:28;;;;;;;30.23;14.13;;;;;;;;;;5013196;28;20018;-66
2021/11/30 18:17:54;;;;;;;32.70;13.35;;;;;;;;;;5013034;28;20026;-64
2021/11/30 18:20:21;;;;;;;32.30;13.27;;;;;;;;;;5012756;28;20079;-66
2021/11/30 18:22:47;;;;;;;32.17;15.40;;;;;;;;;;5013203;28;20481;-65
2021/11/30 18:25:13;;;;;;;30.90;14.88;;;;;;;;;;5012169;28;20052;-64
2021/11/30 18:27:39;;;;;;;32.58;14.70;;;;;;;;;;4994577;28;20073;-64
2021/11/30 18:30:07;;;;;;;40.88;21.80;;;;;;;;;;4992448;28;20033;-62
2021/11/30 18:32:33;;;;;;;27.40;14.00;;;;;;;;;;4992955;28;20382;-63
2021/11/30 18:34:59;;;;;;;28.70;12.82;;;;;;;;;;4992814;28;20031;-68
2021/11/30 18:37:25;;;;;;;25.35;12.68;;;;;;;;;;4991362;28;20477;-64
2021/11/30 18:39:51;;;;;;;24.45;12.63;;;;;;;;;;4992835;28;20030;-63
2021/11/30 18:42:18;;;;;;;20.48;11.75;;;;;;;;;;4997597;28;20053;-63
2021/11/30 18:44:45;;;;;;;21.20;11.13;;;;;;;;;;5000971;28;20484;-63
2021/11/30 18:47:11;;;;;;;20.75;11.25;;;;;;;;;;5002423;28;20389;-62
2021/11/30 18:49:37;;;;;;;18.17;10.05;;;;;;;;;;5000328;28;20077;-64
2021/11/30 18:52:04;;;;;;;17.15;9.20;;;;;;;;;;4999569;28;20030;-64
2021/11/30 18:54:33;;;;;;;18.50;9.30;;;;;;;;;;4999950;28;20062;-64
2021/11/30 18:57:01;;;;;;;17.40;9.52;;;;;;;;;;5000529;28;20466;-63
2021/11/30 18:59:27;;;;;;;22.40;11.02;;;;;;;;;;4999096;28;20026;-65
2021/11/30 19:01:53;;;;;;;26.27;11.50;;;;;;;;;;5006585;28;20042;-64
2021/11/30 19:04:19;;;;;;;23.63;11.60;;;;;;;;;;5038068;28;20124;-66
2021/11/30 19:06:45;;;;;;;16.60;8.73;;;;;;;;;;5039715;28;20100;-65
2021/11/30 19:09:11;;;;;;;19.15;10.00;;;;;;;;;;5038593;28;20452;-64
2021/11/30 19:11:37;;;;;;;21.48;9.38;;;;;;;;;;5040609;28;20021;-64
2021/11/30 19:14:03;;;;;;;20.55;9.15;;;;;;;;;;5039412;28;20376;-65
2021/11/30 19:16:30;;;;;;;26.38;12.20;;;;;;;;;;5039699;28;20375;-65
2021/11/30 19:18:56;;;;;;;25.35;11.27;;;;;;;;;;5040788;28;20025;-66
2021/11/30 19:21:22;;;;;;;23.42;11.60;;;;;;;;;;5038739;28;20056;-65
2021/11/30 19:23:48;;;;;;;24.88;11.73;;;;;;;;;;5047766;28;20068;-68
2021/11/30 19:26:14;;;;;;;21.95;10.30;;;;;;;;;;5042470;28;20044;-68
2021/11/30 19:28:40;;;;;;;23.48;11.20;;;;;;;;;;5038976;28;20026;-67
2021/11/30 19:31:06;;;;;;;22.90;11.13;;;;;;;;;;5037063;28;20063;-66
2021/11/30 19:33:35;;;;;;;21.60;10.82;;;;;;;;;;5037487;28;20017;-63
2021/11/30 19:36:01;;;;;;;28.27;13.55;;;;;;;;;;5037234;28;20029;-67
2021/11/30 19:38:27;;;;;;;23.42;10.20;;;;;;;;;;5040456;28;20026;-65
2021/11/30 19:40:59;;;;;;;19.55;9.40;;;;;;;;;;5039146;28;20022;-66
2021/11/30 19:43:26;;;;;;;21.27;10.10;;;;;;;;;;5039192;28;20029;-67
2021/11/30 19:45:54;;;;;;;18.75;10.05;;;;;;;;;;5039180;28;20040;-68
2021/11/30 19:48:23;;;;;;;17.90;9.10;;;;;;;;;;5039144;28;20025;-69
2021/11/30 19:50:50;;;;;;;16.55;8.38;;;;;;;;;;5020834;28;20448;-68
2021/11/30 19:53:16;;;;;;;15.38;8.27;;;;;;;;;;5039563;28;20016;-67
2021/11/30 19:55:42;;;;;;;16.65;8.00;;;;;;;;;;5039052;28;20056;-64
2021/11/30 19:58:08;;;;;;;17.35;9.00;;;;;;;;;;5038649;28;20107;-68
2021/11/30 20:05:47;;;;;;;16.13;7.07;;;;;;;;;;5035414;28;20044;-68
2021/11/30 20:08:15;;;;;;;14.65;7.90;;;;;;;;;;5037396;28;20489;-67
2021/11/30 20:10:41;;;;;;;15.57;7.68;;;;;;;;;;5040749;28;20110;-69
2021/11/30 20:13:07;;;;;;;25.58;8.90;;;;;;;;;;5039511;28;20183;-68
2021/11/30 20:15:42;;;;;;;12.52;7.18;;;;;;;;;;5039339;28;20021;-67
2021/11/30 20:18:10;;;;;;;16.30;7.30;;;;;;;;;;5021337;28;20120;-69
2021/11/30 20:20:38;;;;;;;19.60;8.35;;;;;;;;;;5035361;28;20147;-68
2021/11/30 20:23:05;;;;;;;16.13;7.68;;;;;;;;;;5029110;28;20029;-64
2021/11/30 20:25:32;;;;;;;15.05;7.25;;;;;;;;;;5029163;28;20033;-66
2021/11/30 20:27:58;;;;;;;22.63;11.60;;;;;;;;;;5028883;28;20043;-68
2021/11/30 20:30:24;;;;;;;18.30;9.55;;;;;;;;;;5028829;28;20040;-63
2021/11/30 20:32:51;;;;;;;28.05;9.75;;;;;;;;;;5029314;28;20026;-64
2021/11/30 20:38:57;;;;;;;19.05;8.23;;;;;;;;;;5030789;28;20029;-65
2021/11/30 20:41:00;;;;;;;17.10;7.78;;;;;;;;;;5027620;28;20047;-68
2021/11/30 20:43:29;;;;;;;17.02;7.75;;;;;;;;;;5028210;28;20078;-63
2021/11/30 20:45:56;;;;;;;18.60;8.15;;;;;;;;;;5027800;28;20377;-67
2021/11/30 20:48:24;;;;;;;13.80;6.72;;;;;;;;;;5010284;28;20495;-69
2021/11/30 20:50:53;;;;;;;14.90;6.93;;;;;;;;;;5024788;28;20036;-68
2021/11/30 20:53:20;;;;;;;15.65;6.97;;;;;;;;;;5028672;28;20432;-69
2021/11/30 20:55:46;;;;;;;11.65;6.03;;;;;;;;;;4999395;28;20026;-67
2021/11/30 20:58:13;;;;;;;13.82;6.40;;;;;;;;;;5024282;28;20025;-68
2021/11/30 21:00:40;;;;;;;14.13;6.43;;;;;;;;;;5026273;28;20085;-68
2021/11/30 21:03:07;;;;;;;15.98;6.97;;;;;;;;;;5017761;28;20187;-64
2021/11/30 21:05:34;;;;;;;13.50;6.90;;;;;;;;;;5022179;28;20468;-64
2021/11/30 21:08:02;;;;;;;13.85;6.90;;;;;;;;;;5025690;28;20022;-65
2021/11/30 21:10:29;;;;;;;13.00;6.43;;;;;;;;;;5015477;28;20030;-65
2021/11/30 21:12:56;;;;;;;15.57;6.93;;;;;;;;;;5018462;28;20026;-64
2021/11/30 21:15:26;;;;;;;12.95;6.97;;;;;;;;;;5017934;28;20033;-64
2021/11/30 21:17:55;;;;;;;14.95;7.10;;;;;;;;;;5018018;28;20529;-64
2021/11/30 21:20:21;;;;;;;12.23;6.30;;;;;;;;;;5025917;28;20112;-64
2021/11/30 21:22:51;;;;;;;14.68;5.90;;;;;;;;;;5031267;28;20507;-64
2021/11/30 21:25:18;;;;;;;12.15;6.93;;;;;;;;;;5032956;28;20040;-66
2021/11/30 21:27:45;;;;;;;14.75;6.20;;;;;;;;;;5033096;28;20033;-66
2021/11/30 21:30:11;;;;;;;15.18;6.75;;;;;;;;;;5033260;28;20155;-64
2021/11/30 21:32:38;;;;;;;14.57;6.75;;;;;;;;;;5033513;28;20099;-67
2021/11/30 21:35:04;;;;;;;12.43;6.20;;;;;;;;;;5041197;28;20020;-67
2021/11/30 21:37:30;;;;;;;12.30;6.47;;;;;;;;;;5042431;28;20017;-67
2021/11/30 21:39:58;;;;;;;12.32;6.35;;;;;;;;;;5039949;28;20130;-66
2021/11/30 21:42:27;;;;;;;12.27;5.82;;;;;;;;;;5044957;28;20758;-64
2021/11/30 21:44:53;;;;;;;11.02;5.78;;;;;;;;;;5045303;28;20029;-64
2021/11/30 21:47:19;;;;;;;10.05;4.97;;;;;;;;;;5041693;28;20034;-63
2021/11/30 21:49:45;;;;;;;9.82;4.55;;;;;;;;;;5041139;28;20155;-63
2021/11/30 21:52:11;;;;;;;9.77;4.72;;;;;;;;;;5023352;28;20514;-64
2021/11/30 21:54:38;;;;;;;12.77;4.70;;;;;;;;;;5042484;28;20028;-67
2021/11/30 21:57:05;;;;;;;7.40;4.13;;;;;;;;;;5040540;28;20077;-63
2021/11/30 21:59:32;;;;;;;8.35;3.85;;;;;;;;;;5023523;28;20029;-65
2021/11/30 22:01:58;;;;;;;8.20;3.85;;;;;;;;;;5043559;28;20061;-65
2021/11/30 22:04:25;;;;;;;8.10;4.05;;;;;;;;;;5042986;28;20112;-64
2021/11/30 22:06:51;;;;;;;9.50;4.22;;;;;;;;;;5041885;28;20025;-64
2021/11/30 22:09:18;;;;;;;13.07;4.57;;;;;;;;;;5042210;28;20531;-65
2021/11/30 22:11:45;;;;;;;9.65;4.07;;;;;;;;;;5040533;28;20029;-66
2021/11/30 22:14:11;;;;;;;9.00;4.28;;;;;;;;;;5041934;28;20027;-66